createdAt,value
2023-04-28T00:02:26.003Z,7.33
2023-04-28T00:05:01.248Z,7.63
2023-04-28T00:07:33.601Z,7.50
2023-04-28T00:10:06.599Z,7.10
2023-04-28T00:12:40.376Z,7.00
2023-04-28T00:15:11.416Z,7.17
2023-04-28T00:17:41.303Z,7.40
2023-04-28T00:20:17.610Z,7.60
2023-04-28T00:22:51.205Z,7.50
2023-04-28T00:25:24.385Z,7.90
2023-04-28T00:27:56.329Z,7.70
2023-04-28T00:30:26.106Z,8.07
2023-04-28T00:32:58.816Z,7.77
2023-04-28T00:35:31.416Z,7.47
2023-04-28T00:38:04.007Z,7.23
2023-04-28T00:40:38.957Z,7.23
2023-04-28T00:43:09.050Z,7.07
2023-04-28T00:45:40.459Z,7.30
2023-04-28T00:48:17.667Z,7.67
2023-04-28T00:50:53.300Z,7.77
2023-04-28T00:53:25.856Z,7.67
2023-04-28T00:55:58.723Z,7.83
2023-04-28T00:58:31.030Z,7.83
2023-04-28T01:01:06.310Z,7.20
2023-04-28T01:03:38.274Z,8.90
2023-04-28T01:06:15.348Z,7.77
2023-04-28T01:08:54.425Z,8.07
2023-04-28T01:11:27.245Z,7.43
2023-04-28T01:14:00.423Z,7.73
2023-04-28T01:16:36.912Z,7.63
2023-04-28T01:19:11.697Z,7.90
2023-04-28T01:21:56.201Z,7.10
2023-04-28T01:24:37.265Z,7.73
2023-04-28T01:27:19.566Z,7.50
2023-04-28T01:29:50.950Z,8.30
2023-04-28T01:32:20.900Z,7.87
2023-04-28T01:34:50.708Z,7.50
2023-04-28T01:37:20.706Z,7.80
2023-04-28T01:39:56.247Z,7.97
2023-04-28T01:42:32.763Z,7.40
2023-04-28T01:45:07.381Z,7.33
2023-04-28T01:47:39.608Z,8.13
2023-04-28T01:50:17.441Z,7.57
2023-04-28T01:52:51.584Z,8.27
2023-04-28T01:55:25.640Z,7.20
2023-04-28T01:58:01.048Z,7.43
2023-04-28T02:00:30.985Z,7.77
2023-04-28T02:03:03.633Z,7.93
2023-04-28T02:05:48.369Z,7.33
2023-04-28T02:08:24.992Z,7.67
2023-04-28T02:10:57.465Z,7.70
2023-04-28T02:13:29.387Z,7.97
2023-04-28T02:16:01.824Z,7.63
2023-04-28T02:18:36.204Z,7.73
2023-04-28T02:21:15.060Z,7.83
2023-04-28T02:23:51.992Z,8.33
2023-04-28T02:26:29.354Z,7.57
2023-04-28T02:29:01.521Z,7.83
2023-04-28T02:31:31.822Z,7.90
2023-04-28T02:34:06.935Z,8.60
2023-04-28T02:36:37.038Z,8.07
2023-04-28T02:39:07.129Z,8.20
2023-04-28T02:41:44.893Z,8.57
2023-04-28T02:44:18.829Z,8.27
2023-04-28T02:46:48.738Z,8.27
2023-04-28T02:49:20.284Z,8.57
2023-04-28T02:52:00.338Z,8.43
2023-04-28T02:54:34.516Z,7.80
2023-04-28T02:57:11.057Z,7.97
2023-04-28T02:59:43.232Z,8.80
2023-04-28T03:02:13.114Z,9.00
2023-04-28T03:04:48.208Z,8.57
2023-04-28T03:07:19.549Z,10.20
2023-04-28T03:09:57.617Z,9.83
2023-04-28T03:12:44.486Z,9.03
2023-04-28T03:15:14.801Z,9.50
2023-04-28T03:17:46.087Z,10.07
2023-04-28T03:20:17.216Z,10.10
2023-04-28T03:22:49.555Z,9.50
2023-04-28T03:25:21.340Z,10.03
2023-04-28T03:27:57.993Z,10.03
2023-04-28T03:30:31.846Z,9.77
2023-04-28T03:33:10.279Z,9.67
2023-04-28T03:35:45.635Z,10.17
2023-04-28T03:38:18.525Z,9.90
2023-04-28T03:40:53.427Z,10.07
2023-04-28T03:43:29.927Z,10.80
2023-04-28T03:45:59.894Z,10.00
2023-04-28T03:48:32.314Z,10.43
2023-04-28T03:51:05.036Z,10.80
2023-04-28T03:53:39.115Z,10.83
2023-04-28T03:56:13.670Z,11.13
2023-04-28T03:58:46.268Z,10.47
2023-04-28T04:01:17.242Z,10.70
2023-04-28T04:03:53.589Z,11.27
2023-04-28T04:06:25.956Z,10.60
2023-04-28T04:08:55.789Z,11.63
2023-04-28T04:11:26.132Z,10.97
2023-04-28T04:13:58.585Z,10.60
2023-04-28T04:16:29.593Z,11.03
2023-04-28T04:18:59.448Z,10.43
2023-04-28T04:21:29.445Z,10.37
2023-04-28T04:24:01.597Z,11.30
2023-04-28T04:26:34.197Z,10.17
2023-04-28T04:29:06.697Z,10.87
2023-04-28T04:31:38.975Z,10.30
2023-04-28T04:34:14.856Z,10.33
2023-04-28T04:36:45.978Z,10.33
2023-04-28T04:39:21.891Z,11.33
2023-04-28T04:41:51.722Z,11.83
2023-04-28T04:44:28.401Z,11.43
2023-04-28T04:46:59.358Z,12.23
2023-04-28T04:49:32.058Z,11.23
2023-04-28T04:52:01.900Z,11.90
2023-04-28T04:54:31.776Z,12.13
2023-04-28T04:57:02.042Z,11.70
2023-04-28T04:59:34.427Z,12.63
2023-04-28T05:02:04.330Z,11.57
2023-04-28T05:04:36.052Z,12.03
2023-04-28T05:07:06.088Z,12.00
2023-04-28T05:09:35.985Z,11.43
2023-04-28T05:12:05.915Z,12.33
2023-04-28T05:14:38.316Z,12.00
2023-04-28T05:17:08.181Z,11.73
2023-04-28T05:19:39.676Z,11.77
2023-04-28T05:22:09.480Z,12.03
2023-04-28T05:24:39.272Z,12.63
2023-04-28T05:27:11.842Z,12.10
2023-04-28T05:29:47.415Z,11.47
2023-04-28T05:32:19.979Z,11.80
2023-04-28T05:34:49.942Z,12.67
2023-04-28T05:37:19.889Z,13.00
2023-04-28T05:39:51.264Z,11.87
2023-04-28T05:42:24.296Z,12.20
2023-04-28T05:44:56.789Z,12.10
2023-04-28T05:47:26.745Z,11.90
2023-04-28T05:50:00.465Z,11.63
2023-04-28T05:52:32.111Z,10.60
2023-04-28T05:55:05.523Z,12.13
2023-04-28T05:57:45.661Z,11.33
2023-04-28T06:00:34.349Z,11.03
2023-04-28T06:03:04.488Z,10.87
2023-04-28T06:05:42.031Z,11.80
2023-04-28T06:08:14.517Z,10.43
2023-04-28T06:10:45.984Z,11.90
2023-04-28T06:13:21.991Z,11.10
2023-04-28T06:15:56.957Z,11.27
2023-04-28T06:18:34.916Z,10.90
2023-04-28T06:21:04.837Z,10.13
2023-04-28T06:23:41.481Z,10.97
2023-04-28T06:26:18.437Z,11.37
2023-04-28T06:28:48.775Z,11.07
2023-04-28T06:31:21.353Z,11.57
2023-04-28T06:33:53.977Z,11.13
2023-04-28T06:36:28.192Z,10.70
2023-04-28T06:38:59.067Z,10.63
2023-04-28T06:41:29.430Z,11.10
2023-04-28T06:43:59.269Z,11.50
2023-04-28T06:46:33.621Z,10.47
2023-04-28T06:49:03.506Z,9.83
2023-04-28T06:51:37.034Z,10.37
2023-04-28T06:54:09.660Z,10.33
2023-04-28T06:56:39.493Z,11.23
2023-04-28T06:59:12.436Z,11.10
2023-04-28T07:01:48.193Z,11.37
2023-04-28T07:04:23.806Z,10.80
2023-04-28T07:06:53.988Z,10.50
2023-04-28T07:09:23.821Z,10.80
2023-04-28T07:11:53.660Z,11.43
2023-04-28T07:14:25.069Z,10.50
2023-04-28T07:16:57.766Z,10.80
2023-04-28T07:19:27.590Z,11.33
2023-04-28T07:21:57.446Z,11.33
2023-04-28T07:24:27.591Z,10.33
2023-04-28T07:26:59.781Z,10.30
2023-04-28T07:29:34.413Z,10.50
2023-04-28T07:32:11.216Z,10.17
2023-04-28T07:34:46.698Z,10.00
2023-04-28T07:37:17.841Z,10.50
2023-04-28T07:39:47.850Z,10.60
2023-04-28T07:42:19.280Z,10.73
2023-04-28T07:44:49.149Z,10.77
2023-04-28T07:47:21.661Z,10.57
2023-04-28T07:49:51.494Z,9.37
2023-04-28T07:52:21.396Z,10.10
2023-04-28T07:54:51.375Z,10.70
2023-04-28T07:57:21.295Z,10.23
2023-04-28T07:59:51.145Z,9.70
2023-04-28T08:02:23.721Z,10.23
2023-04-28T08:04:57.043Z,10.40
2023-04-28T08:07:27.073Z,10.03
2023-04-28T08:09:57.375Z,11.10
2023-04-28T08:12:27.298Z,10.33
2023-04-28T08:14:57.096Z,9.37
2023-04-28T08:17:29.553Z,10.73
2023-04-28T08:19:59.550Z,10.77
2023-04-28T08:22:29.526Z,10.30
2023-04-28T08:24:59.351Z,9.93
2023-04-28T08:27:29.213Z,9.90
2023-04-28T08:29:59.025Z,10.00
2023-04-28T08:32:34.542Z,9.77
2023-04-28T08:35:05.075Z,9.83
2023-04-28T08:37:35.998Z,9.80
2023-04-28T08:40:10.225Z,10.20
2023-04-28T08:42:41.136Z,10.10
2023-04-28T08:45:15.958Z,9.53
2023-04-28T08:47:50.182Z,9.30
2023-04-28T08:50:24.919Z,10.33
2023-04-28T08:52:55.873Z,9.60
2023-04-28T08:55:26.700Z,9.97
2023-04-28T08:57:57.716Z,9.97
2023-04-28T09:00:28.433Z,9.70
2023-04-28T09:03:01.037Z,11.13
2023-04-28T09:05:37.228Z,9.93
2023-04-28T09:08:07.562Z,9.80
2023-04-28T09:10:38.313Z,10.83
2023-04-28T09:13:08.266Z,10.03
2023-04-28T09:15:41.278Z,9.60
2023-04-28T09:18:19.028Z,9.73
2023-04-28T09:20:48.872Z,10.00
2023-04-28T09:23:20.530Z,10.13
2023-04-28T09:26:01.666Z,9.90
2023-04-28T09:28:31.830Z,10.57
2023-04-28T09:31:01.808Z,10.50
2023-04-28T09:33:34.578Z,10.10
2023-04-28T09:36:04.464Z,10.23
2023-04-28T09:38:34.259Z,10.07
2023-04-28T09:41:05.433Z,10.40
2023-04-28T09:43:37.249Z,9.87
2023-04-28T09:46:08.744Z,10.50
2023-04-28T09:48:41.746Z,10.90
2023-04-28T09:51:13.174Z,9.80
2023-04-28T09:53:44.406Z,11.40
2023-04-28T09:56:14.373Z,10.40
2023-04-28T09:58:46.996Z,10.87
2023-04-28T10:01:17.647Z,10.67
2023-04-28T10:03:55.721Z,9.43
2023-04-28T10:06:25.994Z,10.50
2023-04-28T10:08:55.763Z,9.90
2023-04-28T10:11:25.741Z,10.10
2023-04-28T10:13:56.890Z,10.10
2023-04-28T10:16:27.381Z,10.20
2023-04-28T10:19:00.680Z,10.20
2023-04-28T10:21:32.611Z,10.47
2023-04-28T10:24:13.663Z,10.60
2023-04-28T10:27:06.471Z,10.07
2023-04-28T10:29:36.998Z,10.37
2023-04-28T10:32:21.189Z,10.37
2023-04-28T10:34:53.713Z,10.37
2023-04-28T10:37:43.922Z,11.37
2023-04-28T10:40:34.754Z,10.03
2023-04-28T10:43:05.040Z,10.87
2023-04-28T10:46:02.927Z,9.80
2023-04-28T10:48:58.161Z,10.63
2023-04-28T10:51:39.835Z,10.37
2023-04-28T10:54:22.219Z,11.20
2023-04-28T10:57:33.676Z,11.00
2023-04-28T11:00:31.262Z,11.10
2023-04-28T11:03:01.283Z,11.30
2023-04-28T11:05:35.152Z,10.33
2023-04-28T11:08:36.968Z,11.83
2023-04-28T11:11:24.555Z,11.43
2023-04-28T11:13:55.088Z,12.83
2023-04-28T11:16:28.866Z,13.03
2023-04-28T11:19:05.140Z,13.10
2023-04-28T11:21:35.854Z,12.60
2023-04-28T11:24:13.055Z,13.23
2023-04-28T11:26:43.953Z,13.20
2023-04-28T11:29:16.082Z,13.97
2023-04-28T11:31:53.314Z,14.70
2023-04-28T11:34:24.489Z,14.07
2023-04-28T11:36:55.090Z,13.63
2023-04-28T11:39:33.396Z,12.93
2023-04-28T11:42:05.140Z,13.83
2023-04-28T11:44:35.016Z,14.97
2023-04-28T11:47:06.781Z,13.70
2023-04-28T11:49:47.501Z,14.23
2023-04-28T11:52:17.316Z,14.57
2023-04-28T11:54:56.799Z,14.97
2023-04-28T11:57:27.011Z,15.20
2023-04-28T11:59:57.144Z,15.27
2023-04-28T12:02:32.109Z,14.90
2023-04-28T12:05:11.874Z,15.40
2023-04-28T12:07:46.050Z,14.93
2023-04-28T12:10:20.104Z,15.03
2023-04-28T12:12:53.203Z,15.13
2023-04-28T12:15:25.117Z,15.53
2023-04-28T12:17:55.020Z,15.60
2023-04-28T12:20:39.242Z,15.80
2023-04-28T12:23:09.657Z,15.50
2023-04-28T12:25:49.477Z,16.73
2023-04-28T12:28:19.428Z,16.83
2023-04-28T12:30:49.348Z,16.60
2023-04-28T12:33:27.296Z,15.07
2023-04-28T12:36:04.086Z,17.90
2023-04-28T12:38:33.977Z,16.40
2023-04-28T12:41:08.094Z,15.13
2023-04-28T12:43:37.939Z,16.63
2023-04-28T12:46:08.903Z,16.67
2023-04-28T12:48:38.820Z,18.07
2023-04-28T12:51:10.762Z,17.13
2023-04-28T12:53:40.564Z,18.80
2023-04-28T12:56:18.656Z,17.53
2023-04-28T12:58:50.964Z,17.83
2023-04-28T13:01:23.626Z,18.60
2023-04-28T13:04:00.950Z,19.37
2023-04-28T13:06:31.298Z,19.17
2023-04-28T13:09:09.956Z,18.50
2023-04-28T13:11:46.043Z,19.53
2023-04-28T13:14:17.734Z,19.37
2023-04-28T13:16:50.032Z,19.10
2023-04-28T13:19:19.829Z,19.20
2023-04-28T13:21:50.234Z,18.90
2023-04-28T13:24:20.012Z,18.70
2023-04-28T13:26:52.779Z,19.03
2023-04-28T13:29:22.800Z,18.70
2023-04-28T13:31:55.074Z,19.23
2023-04-28T13:34:26.605Z,20.50
2023-04-28T13:36:59.069Z,20.70
2023-04-28T13:39:28.901Z,20.40
2023-04-28T13:42:01.873Z,19.53
2023-04-28T13:44:34.660Z,21.50
2023-04-28T13:47:08.121Z,20.90
2023-04-28T13:49:45.868Z,21.17
2023-04-28T13:52:17.202Z,20.77
2023-04-28T14:05:52.965Z,20.07
2023-04-28T14:08:24.867Z,21.57
2023-04-28T14:10:59.402Z,22.13
2023-04-28T14:13:29.972Z,20.33
2023-04-28T14:16:02.890Z,20.60
2023-04-28T14:18:55.262Z,21.90
2023-04-28T14:21:29.612Z,23.10
2023-04-28T14:23:59.400Z,22.60
2023-04-28T14:26:35.747Z,24.17
2023-04-28T14:29:10.848Z,23.63
2023-04-28T14:31:43.517Z,24.23
2023-04-28T14:34:20.132Z,25.80
2023-04-28T14:36:53.120Z,24.83
2023-04-28T14:39:28.930Z,25.53
2023-04-28T14:41:58.877Z,25.20
2023-04-28T14:44:31.030Z,26.57
2023-04-28T14:47:01.660Z,26.10
2023-04-28T14:49:35.563Z,25.23
2023-04-28T14:52:08.403Z,27.13
2023-04-28T14:54:42.198Z,27.83
2023-04-28T14:57:20.228Z,26.03
2023-04-28T14:59:52.027Z,26.90
2023-04-28T15:02:29.052Z,25.40
2023-04-28T15:05:04.668Z,26.00
2023-04-28T15:07:37.287Z,25.43
2023-04-28T15:10:10.554Z,29.23
2023-04-28T15:12:43.407Z,27.80
2023-04-28T15:15:13.857Z,27.70
2023-04-28T15:17:46.998Z,29.10
2023-04-28T15:20:16.888Z,28.47
2023-04-28T15:22:52.123Z,29.30
2023-04-28T15:25:26.423Z,29.73
2023-04-28T15:28:00.027Z,29.47
2023-04-28T15:30:33.678Z,28.23
2023-04-28T15:33:06.345Z,28.07
2023-04-28T15:35:36.726Z,29.17
2023-04-28T15:38:09.454Z,26.97
2023-04-28T15:40:41.426Z,28.57
2023-04-28T15:43:20.421Z,28.17
2023-04-28T15:45:50.243Z,28.37
2023-04-28T15:48:23.488Z,27.97
2023-04-28T15:51:02.350Z,26.80
2023-04-28T15:53:35.039Z,28.53
2023-04-28T15:56:06.631Z,25.23
2023-04-28T15:58:40.666Z,25.63
2023-04-28T16:01:13.757Z,23.03
2023-04-28T16:03:44.787Z,20.90
2023-04-28T16:06:19.808Z,21.57
2023-04-28T16:08:57.145Z,21.20
2023-04-28T16:11:35.078Z,22.73
2023-04-28T16:14:08.549Z,26.47
2023-04-28T16:16:42.661Z,26.30
2023-04-28T16:19:12.476Z,26.73
2023-04-28T16:21:44.774Z,28.53
2023-04-28T16:24:25.406Z,23.53
2023-04-28T16:26:55.337Z,27.37
2023-04-28T16:29:53.201Z,27.10
2023-04-28T16:32:25.199Z,26.10
2023-04-28T16:35:00.056Z,26.77
2023-04-28T16:37:29.892Z,25.37
2023-04-28T16:40:05.419Z,27.77
2023-04-28T16:42:39.786Z,23.40
2023-04-28T16:45:13.718Z,27.67
2023-04-28T16:47:45.249Z,27.10
2023-04-28T16:50:20.767Z,26.83
2023-04-28T16:52:52.978Z,26.83
2023-04-28T16:55:28.181Z,27.37
2023-04-28T16:58:00.302Z,25.27
2023-04-28T17:00:32.768Z,25.17
2023-04-28T17:03:06.077Z,24.60
2023-04-28T17:05:37.548Z,25.43
2023-04-28T17:08:10.299Z,24.57
2023-04-28T17:10:42.890Z,25.67
2023-04-28T17:13:26.444Z,26.87
2023-04-28T17:15:58.865Z,28.47
2023-04-28T17:18:32.095Z,28.97
2023-04-28T17:21:04.542Z,29.03
2023-04-28T17:26:23.454Z,27.27
2023-04-28T17:28:53.645Z,26.33
2023-04-28T17:31:39.319Z,27.33
2023-04-28T17:34:12.864Z,26.80
2023-04-28T17:36:44.338Z,30.17
2023-04-28T17:39:16.737Z,29.67
2023-04-28T17:41:49.330Z,30.20
2023-04-28T17:44:19.177Z,30.47
2023-04-28T17:46:49.039Z,32.17
2023-04-28T17:49:20.737Z,31.60
2023-04-28T17:51:54.032Z,32.80
2023-04-28T17:54:27.273Z,34.27
2023-04-28T17:57:02.971Z,31.27
2023-04-28T17:59:37.336Z,32.53
2023-04-28T18:02:12.166Z,35.10
2023-04-28T18:04:46.271Z,35.27
2023-04-28T18:07:21.590Z,35.37
2023-04-28T18:09:54.696Z,36.50
2023-04-28T18:12:27.514Z,36.07
2023-04-28T18:14:58.029Z,38.80
2023-04-28T18:17:27.947Z,36.67
2023-04-28T18:19:58.052Z,39.87
2023-04-28T18:22:28.265Z,34.37
2023-04-28T18:24:58.701Z,38.33
2023-04-28T18:27:31.147Z,40.13
2023-04-28T18:30:01.024Z,40.03
2023-04-28T18:32:31.204Z,36.40
2023-04-28T18:35:01.057Z,39.30
2023-04-28T18:37:31.245Z,40.30
2023-04-28T18:40:01.156Z,33.90
2023-04-28T18:42:34.324Z,34.40
2023-04-28T18:45:06.194Z,32.33
2023-04-28T18:47:36.149Z,38.67
2023-04-28T18:50:07.345Z,35.63
2023-04-28T18:52:37.159Z,35.90
2023-04-28T18:55:07.461Z,35.60
2023-04-28T18:57:40.735Z,34.37
2023-04-28T19:00:12.099Z,34.43
2023-04-28T19:02:42.046Z,36.87
2023-04-28T19:05:14.811Z,35.73
2023-04-28T19:07:45.465Z,37.77
2023-04-28T19:10:22.390Z,37.60
2023-04-28T19:12:56.240Z,34.30
2023-04-28T19:15:27.092Z,38.60
2023-04-28T19:17:57.499Z,37.47
2023-04-28T19:20:27.387Z,31.60
2023-04-28T19:22:57.223Z,32.40
2023-04-28T19:25:27.009Z,36.40
2023-04-28T19:27:59.437Z,36.43
2023-04-28T19:30:30.420Z,35.93
2023-04-28T19:33:00.362Z,35.93
2023-04-28T19:35:30.222Z,33.60
2023-04-28T19:38:00.037Z,30.30
2023-04-28T19:40:30.669Z,33.10
2023-04-28T19:43:04.081Z,31.80
2023-04-28T19:45:44.089Z,36.20
2023-04-28T19:48:19.033Z,36.57
2023-04-28T19:50:51.614Z,33.87
2023-04-28T19:53:22.969Z,34.90
2023-04-28T19:55:52.765Z,33.93
2023-04-28T19:58:25.177Z,32.30
2023-04-28T20:00:54.981Z,29.63
2023-04-28T20:03:24.927Z,33.67
2023-04-28T20:05:54.897Z,33.60
2023-04-28T20:08:27.796Z,31.73
2023-04-28T20:10:57.725Z,35.03
2023-04-28T20:13:30.131Z,35.03
2023-04-28T20:16:00.050Z,34.80
2023-04-28T20:18:31.284Z,36.63
2023-04-28T20:21:04.901Z,37.50
2023-04-28T20:23:34.697Z,34.60
2023-04-28T20:26:05.552Z,34.23
2023-04-28T20:28:37.987Z,31.43
2023-04-28T20:31:10.860Z,32.83
2023-04-28T20:33:40.745Z,34.30
2023-04-28T20:36:10.720Z,36.87
2023-04-28T20:38:40.549Z,34.03
2023-04-28T20:41:10.678Z,36.03
2023-04-28T20:43:43.216Z,36.40
2023-04-28T20:46:16.972Z,37.33
2023-04-28T20:48:46.852Z,37.30
2023-04-28T20:51:17.047Z,37.53
2023-04-28T20:53:46.852Z,36.13
2023-04-28T20:56:19.010Z,35.83
2023-04-28T20:58:51.405Z,35.73
2023-04-28T21:01:21.547Z,31.30
2023-04-28T21:03:51.661Z,32.63
2023-04-28T21:06:23.257Z,32.73
2023-04-28T21:08:53.173Z,32.60
2023-04-28T21:11:23.016Z,29.37
2023-04-28T21:13:55.427Z,31.03
2023-04-28T21:16:25.314Z,31.37
2023-04-28T21:18:55.187Z,28.43
2023-04-28T21:21:25.036Z,30.17
2023-04-28T21:23:55.676Z,29.10
2023-04-28T21:26:27.040Z,27.50
2023-04-28T21:28:59.547Z,26.07
2023-04-28T21:31:29.576Z,29.60
2023-04-28T21:33:59.426Z,30.50
2023-04-28T21:36:29.217Z,29.03
2023-04-28T21:39:01.395Z,26.57
2023-04-28T21:41:31.261Z,27.77
2023-04-28T21:44:03.701Z,25.33
2023-04-28T21:46:34.423Z,24.57
2023-04-28T21:49:04.315Z,25.73
2023-04-28T21:51:34.664Z,24.73
2023-04-28T21:54:04.856Z,24.57
2023-04-28T21:56:34.684Z,24.03
2023-04-28T21:59:07.148Z,24.30
2023-04-28T22:01:37.238Z,24.33
2023-04-28T22:04:09.026Z,24.90
2023-04-28T22:06:43.445Z,24.43
2023-04-28T22:09:13.893Z,24.60
2023-04-28T22:11:43.725Z,27.47
2023-04-28T22:14:35.123Z,25.30
2023-04-28T22:17:06.399Z,24.43
2023-04-28T22:19:36.202Z,24.93
2023-04-28T22:22:07.211Z,24.07
2023-04-28T22:24:37.306Z,21.60
2023-04-28T22:27:07.338Z,21.33
2023-04-28T22:29:39.741Z,22.50
2023-04-28T22:32:10.998Z,24.70
2023-04-28T22:34:41.040Z,26.00
2023-04-28T22:37:11.077Z,27.70
2023-04-28T22:39:41.081Z,26.87
2023-04-28T22:42:11.043Z,24.43
2023-04-28T22:44:43.498Z,23.10
2023-04-28T22:47:13.365Z,23.87
2023-04-28T22:49:43.656Z,22.43
2023-04-28T22:52:13.466Z,22.03
2023-04-28T22:54:43.299Z,22.33
2023-04-28T22:57:13.090Z,23.30
2023-04-28T22:59:45.726Z,22.57
2023-04-28T23:02:15.564Z,23.33
2023-04-28T23:04:48.526Z,24.20
2023-04-28T23:07:20.870Z,23.43
2023-04-28T23:09:50.812Z,22.73
2023-04-28T23:12:21.335Z,23.10
2023-04-28T23:14:54.119Z,22.87
2023-04-28T23:17:23.944Z,24.17
2023-04-28T23:19:53.820Z,23.80
2023-04-28T23:22:23.636Z,23.83
2023-04-28T23:24:53.493Z,23.43
2023-04-28T23:27:23.338Z,23.10
2023-04-28T23:29:56.119Z,23.50
2023-04-28T23:32:26.020Z,24.10
2023-04-28T23:34:55.892Z,22.40
2023-04-28T23:37:28.831Z,24.47
2023-04-28T23:39:58.692Z,23.03
2023-04-28T23:42:29.217Z,21.60
2023-04-28T23:45:01.739Z,22.37
2023-04-28T23:47:31.622Z,24.60
2023-04-28T23:50:01.492Z,22.93
2023-04-28T23:52:32.841Z,21.83
2023-04-28T23:55:02.927Z,21.90
2023-04-28T23:57:32.810Z,20.97
